Time;durP1;ratioP1;P1;durP2;ratioP2;P2;SDS_P1;SDS_P2;PMS_P1;PMS_P2;Temp;Humidity;BMP_temperature;BMP_pressure;BME280_temperature;BME280_humidity;BME280_pressure;Samples;Min_cycle;Max_cycle;Signal;HPM_P1;HPM_P2
2023/01/29 00:01:52;;;;;;;20.70;11.52;;;-0.20;99.90;;;-1.99;100.00;101990.72;4990772;28;20077;-71
2023/01/29 00:04:18;;;;;;;22.55;12.50;;;-0.20;99.90;;;-1.93;100.00;101994.81;4992097;28;20035;-71
2023/01/29 00:06:44;;;;;;;18.73;11.10;;;-0.10;99.90;;;-1.94;100.00;101993.94;4991907;28;20038;-71
2023/01/29 00:09:11;;;;;;;21.77;11.50;;;-0.10;99.90;;;-1.92;100.00;101985.81;4992361;28;20092;-71
2023/01/29 00:11:37;;;;;;;21.77;11.52;;;-0.10;99.90;;;-1.96;100.00;101985.16;4992029;28;20121;-71
2023/01/29 00:14:03;;;;;;;20.45;11.48;;;-0.10;99.90;;;-1.95;100.00;101992.22;4992045;28;20042;-73
2023/01/29 00:16:29;;;;;;;19.98;11.93;;;-0.10;99.90;;;-1.98;100.00;101991.59;4991918;28;20030;-71
2023/01/29 00:18:54;;;;;;;23.48;12.25;;;-0.20;99.90;;;-1.93;100.00;101989.44;4992002;28;20493;-71
2023/01/29 00:21:22;;;;;;;22.77;11.88;;;-0.10;99.90;;;-1.96;100.00;101985.16;4991904;28;20081;-71
2023/01/29 00:23:49;;;;;;;20.25;11.88;;;-0.10;99.90;;;-1.98;100.00;101995.09;4991774;28;20084;-71
2023/01/29 00:26:16;;;;;;;27.88;15.05;;;-0.20;99.90;;;-1.99;100.00;101988.03;4994602;28;20037;-71
2023/01/29 00:28:45;;;;;;;23.98;12.32;;;-0.20;99.90;;;-1.95;100.00;101989.53;4995315;28;20026;-71
2023/01/29 00:31:15;;;;;;;21.73;12.45;;;-0.10;99.90;;;-1.92;100.00;101985.81;4995285;28;20511;-71
2023/01/29 00:33:42;;;;;;;21.38;12.20;;;-0.10;99.90;;;-1.93;100.00;101984.94;4995247;28;20061;-71
2023/01/29 00:36:12;;;;;;;22.00;11.52;;;-0.10;99.90;;;-1.88;100.00;101981.97;4995000;28;20046;-71
2023/01/29 00:38:38;;;;;;;28.48;14.77;;;-0.10;99.90;;;-1.83;100.00;101973.66;5010752;28;20031;-71
2023/01/29 00:46:45;;;;;;;20.65;11.95;;;0.00;99.90;;;-1.84;100.00;101978.13;5009489;28;20042;-71
2023/01/29 00:49:11;;;;;;;21.27;11.93;;;0.00;99.90;;;-1.78;100.00;101976.88;4993793;28;20081;-71
2023/01/29 00:51:38;;;;;;;21.85;12.52;;;0.00;99.90;;;-1.89;100.00;101975.75;4995720;28;20068;-71
2023/01/29 00:54:05;;;;;;;23.80;12.82;;;-0.10;99.90;;;-1.91;100.00;101976.81;4995041;28;20072;-71
2023/01/29 00:56:36;;;;;;;22.08;12.07;;;-0.10;99.90;;;-1.85;100.00;101980.91;4994942;28;20038;-71
2023/01/29 00:59:03;;;;;;;22.95;12.18;;;-0.10;99.90;;;-1.89;100.00;101969.56;4995298;28;20386;-71
2023/01/29 01:04:13;;;;;;;21.25;11.70;;;-0.20;99.90;;;-1.90;100.00;101981.22;4994777;28;20026;-72
2023/01/29 01:06:41;;;;;;;25.20;12.20;;;-0.10;99.90;;;-1.94;100.00;101985.91;4994509;28;20470;-71
2023/01/29 01:11:54;;;;;;;25.52;13.07;;;-0.10;99.90;;;-1.90;100.00;101978.53;5009700;28;20050;-71
2023/01/29 01:14:20;;;;;;;25.00;12.90;;;-0.10;99.90;;;-1.82;100.00;101972.69;5005733;28;20322;-71
2023/01/29 01:16:47;;;;;;;22.63;12.30;;;-0.10;99.90;;;-1.82;100.00;101956.63;5009402;28;20426;-71
2023/01/29 01:19:15;;;;;;;24.08;12.68;;;0.00;99.90;;;-1.70;100.00;101958.47;4996054;28;20030;-70
2023/01/29 01:21:47;;;;;;;25.25;12.90;;;0.10;99.90;;;-1.69;100.00;101954.81;4999877;28;20058;-71
2023/01/29 01:24:13;;;;;;;24.25;13.02;;;0.10;99.90;;;-1.66;100.00;101957.28;4993020;28;20057;-70
2023/01/29 01:26:39;;;;;;;23.02;12.32;;;0.10;99.90;;;-1.64;100.00;101946.50;5009462;28;20030;-71
2023/01/29 01:29:05;;;;;;;24.42;13.10;;;0.10;99.90;;;-1.66;100.00;101943.91;4994732;28;20054;-71
2023/01/29 01:31:30;;;;;;;26.08;13.00;;;0.10;99.90;;;-1.73;100.00;101930.06;4992980;28;20080;-71
2023/01/29 01:33:56;;;;;;;24.02;13.57;;;0.00;99.90;;;-1.79;100.00;101929.66;5004331;28;20042;-71
2023/01/29 01:36:22;;;;;;;24.70;12.35;;;0.00;99.90;;;-1.83;100.00;101920.13;4993557;28;20034;-70
2023/01/29 01:38:48;;;;;;;24.73;12.98;;;0.00;99.90;;;-1.81;100.00;101928.91;4994869;28;20425;-71
2023/01/29 01:41:18;;;;;;;24.77;13.57;;;0.00;99.90;;;-1.91;100.00;101924.16;4993960;28;20093;-70
2023/01/29 01:43:54;;;;;;;26.98;14.15;;;-0.10;99.90;;;-1.93;100.00;101934.13;4993759;28;20477;-70
2023/01/29 01:46:21;;;;;;;22.35;12.20;;;-0.10;99.90;;;-1.90;100.00;101917.00;4993667;28;20062;-70
2023/01/29 01:48:57;;;;;;;25.17;13.90;;;-0.10;99.90;;;-1.96;100.00;101920.94;4992455;28;20030;-70
2023/01/29 01:51:26;;;;;;;26.23;14.15;;;-0.10;99.90;;;-1.97;100.00;101915.72;4992479;28;20157;-71
2023/01/29 01:54:22;;;;;;;28.13;14.00;;;-0.20;99.90;;;-2.03;100.00;101920.50;4998037;28;20033;-70
2023/01/29 01:57:07;;;;;;;25.58;13.52;;;-0.20;99.90;;;-2.01;100.00;101917.72;5005290;28;20105;-70
2023/01/29 01:59:36;;;;;;;27.80;13.88;;;-0.20;99.90;;;-1.99;100.00;101910.47;5008697;28;20533;-70
2023/01/29 02:10:20;;;;;;;26.67;14.20;;;-0.40;99.90;;;-2.22;100.00;101923.53;4998530;28;20079;-70
2023/01/29 02:12:47;;;;;;;29.73;14.88;;;-0.40;99.90;;;-2.31;100.00;101937.53;4993125;28;20370;-72
2023/01/29 02:15:14;;;;;;;28.65;14.45;;;-0.50;99.90;;;-2.37;100.00;101941.47;4997867;28;20041;-70
2023/01/29 02:17:40;;;;;;;31.20;15.35;;;-0.60;99.90;;;-2.44;100.00;101941.94;4993411;28;20432;-70
2023/01/29 02:20:23;;;;;;;30.70;14.52;;;-0.60;99.90;;;-2.49;100.00;101935.09;4993430;28;20030;-70
2023/01/29 02:23:42;;;;;;;30.23;13.88;;;-0.70;99.90;;;-2.45;100.00;101933.09;4993323;28;20041;-70
2023/01/29 02:27:01;;;;;;;31.88;14.68;;;-0.70;99.90;;;-2.49;100.00;101951.13;4993302;28;20042;-70
2023/01/29 02:30:02;;;;;;;28.65;14.50;;;-0.70;99.90;;;-2.49;100.00;101961.81;4991921;28;20133;-70
2023/01/29 02:33:01;;;;;;;31.33;14.65;;;-0.70;99.90;;;-2.44;100.00;101947.28;4998316;28;20038;-70
2023/01/29 02:35:32;;;;;;;32.15;15.65;;;-0.70;99.90;;;-2.36;100.00;101966.38;4992200;28;20081;-70
2023/01/29 02:38:30;;;;;;;28.00;14.60;;;-0.60;99.90;;;-2.28;100.00;101957.84;5000980;28;20035;-71
2023/01/29 02:41:26;;;;;;;30.95;14.93;;;-0.50;99.90;;;-2.23;100.00;101963.78;4993194;28;20442;-70
2023/01/29 02:44:19;;;;;;;29.60;15.43;;;-0.50;99.90;;;-2.14;100.00;101967.63;5009635;28;20116;-70
2023/01/29 02:47:08;;;;;;;29.42;14.77;;;-0.40;99.90;;;-2.11;100.00;101970.97;5014035;28;20038;-70
2023/01/29 02:49:43;;;;;;;;;;;-0.30;99.90;;;-2.09;100.00;101962.88;4994265;28;20034;-71
2023/01/29 02:53:13;;;;;;;27.98;14.82;;;-0.30;99.90;;;-2.03;100.00;101965.13;4992855;28;20225;-70
2023/01/29 02:55:52;;;;;;;29.38;15.07;;;-0.30;99.90;;;-1.98;100.00;101972.84;5007546;28;20089;-70
2023/01/29 02:58:29;;;;;;;28.85;15.27;;;-0.20;99.90;;;-1.94;100.00;101972.53;5010306;28;20034;-70
2023/01/29 03:01:31;;;;;;;28.35;14.50;;;-0.20;99.90;;;-1.94;100.00;101959.16;5006680;28;20049;-70
2023/01/29 03:04:06;;;;;;;27.73;14.80;;;-0.20;99.90;;;-1.92;100.00;101957.22;4991027;28;20046;-71
2023/01/29 03:06:40;;;;;;;28.15;14.82;;;-0.10;99.90;;;-1.92;100.00;101957.22;4992810;28;20101;-71
2023/01/29 03:09:31;;;;;;;28.48;14.57;;;-0.10;99.90;;;-1.85;100.00;101938.13;4992772;28;20061;-70
2023/01/29 03:12:27;;;;;;;30.80;15.35;;;-0.10;99.90;;;-1.71;100.00;101939.84;5003262;28;20034;-71
2023/01/29 03:15:15;;;;;;;28.17;14.35;;;-0.10;99.90;;;-1.75;100.00;101937.34;4992227;28;20041;-70
2023/01/29 03:18:04;;;;;;;25.30;13.93;;;0.00;99.90;;;-1.70;100.00;101931.69;5010148;28;20524;-71
2023/01/29 03:20:39;;;;;;;27.88;13.82;;;0.00;99.90;;;-1.68;100.00;101918.22;4996929;28;20069;-71
2023/01/29 03:32:05;;;;;;;31.13;14.93;;;0.10;99.90;;;-1.62;100.00;101928.50;4995586;28;20034;-71
2023/01/29 03:34:40;;;;;;;27.20;14.07;;;0.10;99.90;;;-1.60;100.00;101927.41;4992197;28;20096;-71
2023/01/29 03:37:18;;;;;;;26.02;14.52;;;0.10;99.90;;;-1.55;100.00;101923.59;4991094;28;20035;-71
2023/01/29 03:39:44;;;;;;;29.30;14.50;;;0.20;99.90;;;-1.61;100.00;101920.34;4997661;28;20031;-70
2023/01/29 03:42:38;;;;;;;28.83;14.93;;;0.20;99.90;;;-1.64;100.00;101912.53;5000619;28;20057;-70
2023/01/29 03:45:28;;;;;;;29.23;14.68;;;0.10;99.90;;;-1.64;100.00;101914.38;5008140;28;20041;-70
2023/01/29 03:48:23;;;;;;;28.98;14.15;;;0.10;99.90;;;-1.66;100.00;101917.16;4991676;28;20071;-71
2023/01/29 03:51:26;;;;;;;25.55;14.27;;;0.10;99.90;;;-1.64;100.00;101912.53;5007308;28;20069;-70
2023/01/29 03:54:15;;;;;;;30.38;14.90;;;0.10;99.90;;;-1.65;100.00;101912.66;4994420;28;20493;-71
2023/01/29 03:57:14;;;;;;;30.17;15.75;;;0.10;99.90;;;-1.64;100.00;101912.53;4999485;28;20068;-72
2023/01/29 03:59:56;;;;;;;30.25;14.75;;;0.10;99.90;;;-1.63;100.00;101910.72;5014230;28;20590;-71
2023/01/29 04:03:04;;;;;;;27.27;14.73;;;0.10;99.90;;;-1.65;100.00;101897.44;4995795;28;20039;-71
2023/01/29 04:05:46;;;;;;;28.48;15.00;;;0.20;99.90;;;-1.60;100.00;101900.66;5015389;28;20034;-71
2023/01/29 04:08:29;;;;;;;29.55;14.20;;;0.20;99.90;;;-1.57;100.00;101890.72;5002405;28;20567;-70
2023/01/29 04:11:07;;;;;;;28.42;14.73;;;0.20;99.90;;;-1.56;100.00;101895.13;5001203;28;20125;-71
2023/01/29 04:13:35;;;;;;;30.65;14.93;;;0.20;99.90;;;-1.56;100.00;101893.28;5003451;28;20058;-71
2023/01/29 04:16:08;;;;;;;30.67;14.00;;;0.20;99.90;;;-1.54;100.00;101887.84;4995739;28;20041;-76
2023/01/29 04:18:59;;;;;;;29.80;15.18;;;0.20;99.90;;;-1.55;100.00;101884.28;4996334;28;20042;-72
2023/01/29 04:21:33;;;;;;;27.13;14.30;;;0.20;99.90;;;-1.53;100.00;101873.47;4994333;28;20101;-72
2023/01/29 04:23:59;;;;;;;26.77;14.60;;;0.20;99.90;;;-1.54;100.00;101877.97;4994241;28;20045;-73
2023/01/29 04:27:12;;;;;;;29.17;14.55;;;0.20;99.90;;;-1.43;100.00;101866.50;5001991;28;20061;-72
2023/01/29 04:30:12;;;;;;;29.35;14.43;;;0.20;99.90;;;-1.36;100.00;101854.38;5006553;28;20034;-72
2023/01/29 04:32:56;;;;;;;;;;;0.30;99.90;;;-1.37;100.00;101850.00;5007104;28;20039;-71
2023/01/29 04:35:48;;;;;;;30.67;14.27;;;0.30;99.90;;;-1.31;100.00;101841.56;4995195;28;19928;-71
2023/01/29 04:38:46;;;;;;;27.52;13.43;;;0.40;99.90;;;-1.31;100.00;101840.69;5008259;28;20038;-71
2023/01/29 04:41:51;;;;;;;32.63;15.63;;;0.40;99.90;;;-1.37;100.00;101836.63;4995116;28;20038;-71
2023/01/29 04:44:33;;;;;;;29.95;14.45;;;0.40;99.90;;;-1.38;100.00;101829.56;5009914;28;20486;-71
2023/01/29 04:47:26;;;;;;;30.75;15.30;;;0.40;99.90;;;-1.43;100.00;101820.16;4993905;28;20125;-71
2023/01/29 04:50:36;;;;;;;29.02;14.82;;;0.30;99.90;;;-1.43;100.00;101818.31;4994794;28;20038;-71
2023/01/29 04:53:29;;;;;;;31.07;14.93;;;0.30;99.90;;;-1.44;100.00;101824.63;4996513;28;20081;-71
2023/01/29 04:56:26;;;;;;;30.33;14.82;;;0.30;99.90;;;-1.42;100.00;101824.53;4994282;28;20786;-71
2023/01/29 04:59:03;;;;;;;29.08;14.57;;;0.30;99.90;;;-1.49;100.00;101813.41;4996795;28;20038;-71
2023/01/29 05:01:32;;;;;;;31.50;15.95;;;0.30;99.90;;;-1.48;100.00;101815.13;4994836;28;20045;-71
2023/01/29 05:04:04;;;;;;;30.15;15.50;;;0.20;99.90;;;-1.49;100.00;101810.72;4994828;28;20042;-71
2023/01/29 05:06:31;;;;;;;31.45;15.00;;;0.20;99.90;;;-1.49;100.00;101808.88;4994916;28;20046;-71
2023/01/29 05:09:00;;;;;;;28.80;14.52;;;0.30;99.90;;;-1.48;100.00;101815.97;4994390;28;20038;-71
2023/01/29 05:11:30;;;;;;;33.45;16.38;;;0.20;99.90;;;-1.52;100.00;101813.63;5008582;28;20042;-71
2023/01/29 05:13:57;;;;;;;32.75;15.75;;;0.20;99.90;;;-1.49;100.00;101816.09;4994134;28;20049;-72
2023/01/29 05:16:40;;;;;;;32.42;15.75;;;0.20;99.90;;;-1.53;100.00;101817.28;4994192;28;20129;-72
2023/01/29 05:19:12;;;;;;;30.23;15.05;;;0.20;99.90;;;-1.61;100.00;101815.13;4994491;28;20042;-72
2023/01/29 05:21:42;;;;;;;32.60;15.30;;;0.20;99.90;;;-1.57;100.00;101818.47;4994402;28;20481;-72
2023/01/29 05:24:17;;;;;;;33.35;15.52;;;0.30;99.90;;;-1.57;100.00;101819.28;5009453;28;20085;-72
2023/01/29 05:29:31;;;;;;;32.13;15.82;;;0.30;99.90;;;-1.47;100.00;101820.34;5013624;28;20030;-72
2023/01/29 05:31:57;;;;;;;30.73;15.32;;;0.30;99.90;;;-1.43;100.00;101818.31;4999947;28;20045;-71
2023/01/29 05:34:23;;;;;;;32.83;16.08;;;0.30;99.90;;;-1.43;100.00;101815.63;4993904;28;20482;-72
2023/01/29 05:36:49;;;;;;;28.75;15.43;;;0.30;99.90;;;-1.41;100.00;101808.34;4993946;28;20113;-72
2023/01/29 05:39:15;;;;;;;30.10;15.65;;;0.30;99.90;;;-1.41;100.00;101816.38;4993533;28;20039;-72
2023/01/29 05:41:40;;;;;;;28.50;13.98;;;0.30;99.90;;;-1.38;100.00;101818.84;4999623;28;20034;-72
2023/01/29 05:44:06;;;;;;;30.30;15.07;;;0.40;99.90;;;-1.38;100.00;101823.34;4993437;28;20054;-72
2023/01/29 05:46:32;;;;;;;29.20;15.60;;;0.40;99.90;;;-1.38;100.00;101829.56;4995143;28;20069;-72
2023/01/29 05:48:58;;;;;;;32.20;15.50;;;0.40;99.90;;;-1.37;100.00;101823.22;4995192;28;20030;-72
2023/01/29 05:51:24;;;;;;;31.63;15.25;;;0.40;99.90;;;-1.38;100.00;101826.88;4993641;28;20035;-72
2023/01/29 05:53:49;;;;;;;34.83;15.75;;;0.40;99.90;;;-1.39;100.00;101827.84;4999676;28;20056;-72
2023/01/29 05:56:15;;;;;;;33.95;16.55;;;0.40;99.90;;;-1.37;100.00;101825.91;4993500;28;20096;-72
2023/01/29 05:58:41;;;;;;;34.67;16.02;;;0.40;99.90;;;-1.40;100.00;101836.84;4993653;28;20037;-72
2023/01/29 06:01:11;;;;;;;30.55;15.95;;;0.40;99.90;;;-1.39;100.00;101838.53;4993907;28;20041;-72
2023/01/29 06:03:37;;;;;;;33.22;16.05;;;0.30;99.90;;;-1.41;100.00;101840.47;4993492;28;20034;-72
2023/01/29 06:06:03;;;;;;;31.40;15.02;;;0.40;99.90;;;-1.40;100.00;101844.03;4995039;28;20038;-72
2023/01/29 06:08:29;;;;;;;30.55;14.93;;;0.30;99.90;;;-1.47;100.00;101840.91;4993034;28;20097;-72
2023/01/29 06:10:55;;;;;;;33.88;15.45;;;0.30;99.90;;;-1.36;100.00;101850.88;4992026;28;20081;-71
2023/01/29 06:13:20;;;;;;;32.35;15.82;;;0.40;99.90;;;-1.38;100.00;101853.66;4993485;28;20042;-72
2023/01/29 06:15:46;;;;;;;30.23;14.98;;;0.40;99.90;;;-1.35;100.00;101853.44;4992938;28;20026;-72
2023/01/29 06:18:12;;;;;;;32.03;15.60;;;0.40;99.90;;;-1.36;100.00;101857.06;4993035;28;20045;-70
2023/01/29 06:20:38;;;;;;;34.38;15.63;;;0.40;99.90;;;-1.36;100.00;101862.44;4993486;28;20034;-69
2023/01/29 06:23:04;;;;;;;30.85;15.73;;;0.40;99.90;;;-1.32;100.00;101847.00;5008256;28;20034;-70
2023/01/29 06:25:30;;;;;;;36.35;16.52;;;0.40;99.90;;;-1.29;100.00;101833.41;4993084;28;20046;-71
2023/01/29 06:27:56;;;;;;;35.13;16.02;;;0.40;99.90;;;-1.24;100.00;101831.25;4996588;28;20428;-73
2023/01/29 06:30:22;;;;;;;32.53;15.40;;;0.50;99.90;;;-1.26;100.00;101843.88;4992972;28;20381;-71
2023/01/29 06:32:47;;;;;;;35.83;16.67;;;0.50;99.90;;;-1.29;100.00;101832.56;4991642;28;20045;-71
2023/01/29 06:35:13;;;;;;;38.28;17.33;;;0.40;99.90;;;-1.31;100.00;101825.50;5005465;28;20104;-70
2023/01/29 06:37:39;;;;;;;37.67;17.20;;;0.40;99.90;;;-1.31;100.00;101844.22;4993389;28;20045;-71
2023/01/29 06:40:05;;;;;;;35.10;17.02;;;0.40;99.90;;;-1.34;100.00;101844.44;4993625;28;20497;-71
2023/01/29 06:42:33;;;;;;;35.58;16.70;;;0.40;99.90;;;-1.33;100.00;101838.13;4993053;28;20045;-71
2023/01/29 06:44:59;;;;;;;33.03;16.27;;;0.40;99.90;;;-1.27;100.00;101834.13;4992640;28;20042;-73
2023/01/29 06:47:26;;;;;;;36.92;17.45;;;0.40;99.90;;;-1.30;100.00;101847.75;5008081;28;20038;-72
2023/01/29 06:49:52;;;;;;;40.78;17.20;;;0.40;99.90;;;-1.28;100.00;101835.09;4992672;28;20034;-72
2023/01/29 06:52:18;;;;;;;35.83;16.42;;;0.50;99.90;;;-1.30;100.00;101837.03;4991687;28;20490;-72
2023/01/29 06:54:44;;;;;;;36.95;18.05;;;0.50;99.90;;;-1.30;100.00;101831.69;4996035;28;20049;-71
2023/01/29 06:57:09;;;;;;;38.90;17.70;;;0.40;99.90;;;-1.33;100.00;101834.59;4992843;28;20035;-71
2023/01/29 06:59:35;;;;;;;36.65;17.92;;;0.40;99.90;;;-1.32;100.00;101852.38;4992375;28;20401;-72
2023/01/29 07:02:02;;;;;;;37.20;17.20;;;0.40;99.90;;;-1.33;100.00;101864.91;4992475;28;20038;-72
2023/01/29 07:04:28;;;;;;;38.20;18.23;;;0.40;99.90;;;-1.29;100.00;101862.84;4992253;28;20114;-71
2023/01/29 07:06:54;;;;;;;36.58;17.75;;;0.40;99.90;;;-1.28;100.00;101863.72;4992284;28;20125;-72
2023/01/29 07:09:20;;;;;;;35.88;16.08;;;0.40;99.90;;;-1.26;100.00;101872.50;4992527;28;20468;-71
2023/01/29 07:11:46;;;;;;;33.95;16.80;;;0.50;99.90;;;-1.34;100.00;101868.53;4992349;28;20393;-72
2023/01/29 07:14:12;;;;;;;38.38;16.95;;;0.50;99.90;;;-1.24;100.00;101879.44;4992295;28;20040;-71
2023/01/29 07:16:38;;;;;;;39.30;17.70;;;0.50;99.90;;;-1.22;100.00;101874.00;4992583;28;20035;-71
2023/01/29 07:19:04;;;;;;;39.65;17.65;;;0.50;99.90;;;-1.19;100.00;101871.09;4992603;28;20061;-72
2023/01/29 07:21:29;;;;;;;36.80;17.15;;;0.50;99.90;;;-1.22;100.00;101872.16;4991256;28;20054;-71
2023/01/29 07:23:55;;;;;;;37.63;17.40;;;0.50;99.90;;;-1.21;100.00;101873.88;4990733;28;20042;-71
2023/01/29 07:26:21;;;;;;;39.97;17.75;;;0.50;99.90;;;-1.19;100.00;101876.44;4996234;28;20441;-71
2023/01/29 07:28:47;;;;;;;38.63;17.45;;;0.60;99.90;;;-1.17;100.00;101866.47;4992106;28;20030;-71
2023/01/29 07:31:13;;;;;;;39.15;17.63;;;0.60;99.90;;;-1.12;100.00;101869.69;4992155;28;20049;-70
2023/01/29 07:33:41;;;;;;;39.28;18.48;;;0.60;99.90;;;-1.14;100.00;101852.03;5006875;28;20034;-71
2023/01/29 07:36:09;;;;;;;;;;;0.60;99.90;;;-1.09;100.00;101845.34;4995378;28;20477;-71
2023/01/29 07:38:34;;;;;;;39.55;18.50;;;0.60;99.90;;;-1.10;100.00;101824.88;4996360;28;19917;-70
2023/01/29 07:41:00;;;;;;;41.42;18.40;;;0.60;99.90;;;-1.21;100.00;101822.97;4995967;28;20077;-72
2023/01/29 07:43:26;;;;;;;42.05;18.58;;;0.60;99.90;;;-1.12;100.00;101840.22;5010176;28;20044;-72
2023/01/29 07:45:51;;;;;;;42.08;18.70;;;0.60;99.90;;;-1.12;100.00;101839.38;4995791;28;20489;-71
2023/01/29 07:48:18;;;;;;;42.28;19.90;;;0.60;99.90;;;-1.18;100.00;101840.66;4996081;28;20038;-71
2023/01/29 07:50:44;;;;;;;43.30;18.33;;;0.60;99.90;;;-1.21;100.00;101830.19;5002947;28;20033;-71
2023/01/29 07:53:15;;;;;;;45.90;19.63;;;0.60;99.90;;;-1.25;100.00;101834.03;4996324;28;20039;-69
2023/01/29 07:55:44;;;;;;;45.78;20.20;;;0.50;99.90;;;-1.26;100.00;101829.66;4995774;28;20407;-69
2023/01/29 07:58:10;;;;;;;43.47;19.55;;;0.50;99.90;;;-1.21;100.00;101814.09;4998200;28;20034;-70
2023/01/29 08:00:35;;;;;;;45.33;20.15;;;0.50;99.90;;;-1.28;100.00;101810.16;5003857;28;20037;-70
2023/01/29 08:03:15;;;;;;;46.97;20.63;;;0.50;99.90;;;-1.29;100.00;101787.03;5001437;28;20041;-70
2023/01/29 08:05:41;;;;;;;46.08;20.00;;;0.50;99.90;;;-1.31;100.00;101801.38;4998103;28;20038;-71
2023/01/29 08:08:08;;;;;;;45.90;20.65;;;0.50;99.90;;;-1.31;100.00;101813.91;4995830;28;20045;-71
2023/01/29 08:10:35;;;;;;;50.63;21.55;;;0.50;99.90;;;-1.36;100.00;101800.84;4997700;28;20045;-71
2023/01/29 08:13:02;;;;;;;47.72;19.77;;;0.50;99.90;;;-1.33;100.00;101815.84;5002997;28;20085;-71
2023/01/29 08:15:29;;;;;;;46.40;21.20;;;0.50;99.90;;;-1.41;100.00;101819.06;5004196;28;20042;-70
2023/01/29 08:17:55;;;;;;;51.17;21.52;;;0.50;99.90;;;-1.42;100.00;101822.72;5005794;28;20049;-72
2023/01/29 08:20:21;;;;;;;53.78;22.52;;;0.40;99.90;;;-1.42;100.00;101801.28;5004296;28;20038;-71
2023/01/29 08:22:48;;;;;;;54.45;21.55;;;0.40;99.90;;;-1.50;100.00;101806.34;4995382;28;20068;-71
2023/01/29 08:25:15;;;;;;;53.17;22.23;;;0.40;99.90;;;-1.48;100.00;101812.44;5003565;28;20053;-71
2023/01/29 08:27:41;;;;;;;48.47;21.15;;;0.40;99.90;;;-1.46;100.00;101811.38;5001405;28;20488;-70
2023/01/29 08:30:10;;;;;;;51.28;22.33;;;0.40;99.90;;;-1.43;100.00;101809.44;5004642;28;20034;-71
2023/01/29 08:32:35;;;;;;;52.42;21.25;;;0.40;99.90;;;-1.40;100.00;101804.72;5000664;28;20069;-70
2023/01/29 08:35:01;;;;;;;53.35;22.98;;;0.40;99.90;;;-1.40;100.00;101802.03;5000356;28;20397;-70
2023/01/29 08:37:27;;;;;;;46.55;20.40;;;0.50;99.90;;;-1.32;100.00;101805.03;5008891;28;20053;-71
2023/01/29 08:39:53;;;;;;;46.05;20.70;;;0.50;99.90;;;-1.34;100.00;101814.13;4994178;28;20038;-70
2023/01/29 08:42:19;;;;;;;49.80;21.88;;;0.50;99.90;;;-1.34;100.00;101804.25;4995210;28;20050;-70
2023/01/29 08:44:44;;;;;;;48.88;22.58;;;0.50;99.90;;;-1.27;100.00;101811.88;4995098;28;20046;-70
2023/01/29 08:47:10;;;;;;;46.97;21.13;;;0.60;99.90;;;-1.23;100.00;101799.97;5000234;28;20060;-71
2023/01/29 08:49:36;;;;;;;45.70;20.90;;;0.60;99.90;;;-1.26;100.00;101802.88;4995125;28;20108;-71
2023/01/29 08:52:02;;;;;;;50.25;21.98;;;0.60;99.90;;;-1.19;100.00;101785.38;4995174;28;20092;-70
2023/01/29 08:54:27;;;;;;;50.03;22.58;;;0.60;99.90;;;-1.20;100.00;101789.03;4995500;28;20037;-71
2023/01/29 08:56:53;;;;;;;46.17;21.25;;;0.60;99.90;;;-1.11;100.00;101808.94;5009962;28;20052;-70
2023/01/29 08:59:21;;;;;;;48.90;21.73;;;0.70;99.90;;;-1.12;100.00;101794.69;4995680;28;20045;-70
2023/01/29 09:01:47;;;;;;;47.28;22.05;;;0.70;99.90;;;-1.14;100.00;101798.44;4994943;28;20062;-71
2023/01/29 09:04:13;;;;;;;44.83;21.55;;;0.70;99.90;;;-1.10;100.00;101795.41;4998073;28;20069;-74
2023/01/29 09:06:38;;;;;;;46.47;21.70;;;0.70;99.90;;;-1.05;100.00;101793.28;4994947;28;20117;-71
2023/01/29 09:09:04;;;;;;;47.42;22.00;;;0.80;99.90;;;-1.05;100.00;101790.59;5001072;28;20034;-72
2023/01/29 09:11:30;;;;;;;48.10;21.35;;;0.80;99.90;;;-0.98;100.00;101779.44;5009025;28;20125;-72
2023/01/29 09:13:55;;;;;;;42.53;19.75;;;0.80;99.90;;;-0.91;100.00;101781.56;4994608;28;20046;-71
2023/01/29 09:16:21;;;;;;;47.08;21.02;;;0.90;99.90;;;-0.96;100.00;101780.16;4994716;28;20116;-71
2023/01/29 09:18:47;;;;;;;45.42;21.98;;;0.90;99.90;;;-0.96;100.00;101766.78;4999475;28;20048;-69
2023/01/29 09:21:12;;;;;;;48.40;21.52;;;0.90;99.90;;;-0.92;100.00;101760.22;4997084;28;20050;-70
2023/01/29 09:23:38;;;;;;;51.17;22.33;;;0.90;99.90;;;-0.86;100.00;101751.72;4994532;28;20030;-71
2023/01/29 09:26:07;;;;;;;44.10;20.75;;;1.00;99.90;;;-0.83;100.00;101748.78;4994613;28;20485;-72
2023/01/29 09:28:32;;;;;;;46.92;21.83;;;1.00;99.90;;;-0.78;100.00;101745.78;4993751;28;20035;-71
2023/01/29 09:31:02;;;;;;;45.22;21.50;;;1.10;99.90;;;-0.78;100.00;101748.47;4996831;28;20038;-70
2023/01/29 09:33:28;;;;;;;49.90;21.80;;;1.10;99.90;;;-0.76;100.00;101734.00;4993340;28;20367;-71
2023/01/29 09:35:53;;;;;;;46.88;21.17;;;1.10;99.90;;;-0.72;100.00;101748.00;4994262;28;20042;-70
2023/01/29 09:38:19;;;;;;;52.30;22.58;;;1.10;99.90;;;-0.75;100.00;101751.78;4994543;28;20034;-72
2023/01/29 09:41:07;;;;;;;49.08;21.67;;;1.10;99.90;;;-0.69;100.00;101754.97;4994178;28;20393;-74
2023/01/29 09:43:51;;;;;;;46.17;22.42;;;1.10;99.90;;;-0.63;100.00;101754.50;4993050;28;20110;-72
2023/01/29 09:46:41;;;;;;;40.30;19.77;;;1.20;99.90;;;-0.52;100.00;101743.81;4997594;28;20042;-72
2023/01/29 09:49:25;;;;;;;45.60;20.58;;;1.30;99.90;;;-0.45;100.00;101745.06;5006066;28;20122;-72
2023/01/29 09:52:32;;;;;;;43.13;19.30;;;1.40;99.90;;;-0.30;100.00;101739.47;4991144;28;20511;-72
2023/01/29 09:55:26;;;;;;;43.25;20.10;;;1.50;99.90;;;-0.38;100.00;101732.03;4989448;28;20141;-72
2023/01/29 09:58:04;;;;;;;39.80;19.67;;;1.50;99.90;;;-0.36;100.00;101745.31;4990492;28;20053;-72
2023/01/29 10:01:01;;;;;;;39.60;18.63;;;1.50;99.90;;;-0.30;100.00;101731.41;4991124;28;20468;-72
2023/01/29 10:03:47;;;;;;;45.60;20.15;;;1.50;99.90;;;-0.31;100.00;101732.41;4990357;28;20046;-71
2023/01/29 10:06:57;;;;;;;45.28;21.88;;;1.50;99.90;;;-0.22;100.00;101731.69;4992749;28;20096;-72
2023/01/29 10:09:44;;;;;;;46.55;20.77;;;1.60;99.90;;;-0.18;100.00;101717.06;4993263;28;20041;-73
2023/01/29 10:13:18;;;;;;;40.22;19.45;;;1.60;99.90;;;-0.20;100.00;101716.34;4993328;28;20042;-72
2023/01/29 10:16:08;;;;;;;43.95;20.92;;;1.60;99.90;;;-0.18;100.00;101725.13;4993145;28;20042;-74
2023/01/29 10:18:49;;;;;;;41.35;19.98;;;1.70;99.90;;;-0.20;100.00;101719.03;4993567;28;20056;-73
2023/01/29 10:21:46;;;;;;;44.55;19.98;;;1.60;99.90;;;-0.13;100.00;101729.28;5008617;28;20039;-73
2023/01/29 10:24:39;;;;;;;43.40;19.92;;;1.70;99.90;;;-0.17;100.00;101725.97;4989296;28;20046;-72
2023/01/29 10:27:16;;;;;;;45.15;19.10;;;1.70;99.90;;;-0.18;100.00;101727.81;4993188;28;20039;-72
2023/01/29 10:29:47;;;;;;;47.10;21.23;;;1.70;99.90;;;-0.22;100.00;101726.34;4993243;28;20022;-72
2023/01/29 10:32:20;;;;;;;45.63;19.70;;;1.60;99.90;;;-0.20;100.00;101723.53;4993249;28;20041;-74
2023/01/29 10:34:59;;;;;;;46.80;20.98;;;1.60;99.90;;;-0.14;100.00;101736.44;4993715;28;20053;-73
2023/01/29 10:37:43;;;;;;;41.72;19.50;;;1.60;99.90;;;-0.21;100.00;101730.72;5004921;28;20129;-73
2023/01/29 10:40:21;;;;;;;45.10;19.92;;;1.60;99.90;;;-0.16;100.00;101731.22;4992769;28;20050;-73
2023/01/29 10:43:07;;;;;;;46.60;20.57;;;1.70;99.90;;;-0.15;100.00;101730.25;4991782;28;20489;-73
2023/01/29 10:45:56;;;;;;;42.03;19.98;;;1.60;99.90;;;-0.19;100.00;101725.22;5007604;28;20049;-72
2023/01/29 10:48:43;;;;;;;46.08;20.27;;;1.60;99.90;;;-0.18;100.00;101719.75;4993082;28;20034;-72
2023/01/29 10:51:29;;;;;;;44.15;19.95;;;1.60;99.90;;;-0.13;100.00;101716.72;4993193;28;20046;-73
2023/01/29 10:54:27;;;;;;;42.70;20.38;;;1.70;99.90;;;-0.05;100.00;101702.69;4992974;28;20375;-73
2023/01/29 10:57:39;;;;;;;41.17;20.67;;;1.80;99.90;;;-0.05;100.00;101708.91;4991019;28;20042;-72
2023/01/29 11:00:34;;;;;;;40.35;18.85;;;1.80;99.90;;;-0.05;100.00;101686.59;4993053;28;20164;-71
2023/01/29 11:03:32;;;;;;;34.92;17.02;;;1.70;99.90;;;-0.10;100.00;101668.19;4992835;28;20469;-74